Time,TemperatureF,DewpointF,PressureIn,WindDirection,WindDirectionDegrees,WindSpeedMPH,WindSpeedGustMPH,Humidity,HourlyPrecipIn,Conditions,Clouds,dailyrainin,SoftwareType,DateUTC
2013-07-20 00:22:00,71.0,68.0,29.80,WSW,256,7.0,20.0,90,0.02,,,0.12,,2013-07-20 04:22:00,
2013-07-20 02:43:00,69.0,68.0,29.78,NNE,32,1.0,3.0,97,0.02,,,0.33,,2013-07-20 06:43:00,
2013-07-20 03:44:00,69.0,68.0,29.76,ESE,115,0.0,2.0,97,0.03,,,0.36,,2013-07-20 07:44:00,
2013-07-20 05:43:00,69.0,68.0,29.73,SSE,161,5.0,7.0,96,0.00,,,0.38,,2013-07-20 09:43:00,
2013-07-20 06:01:00,70.0,69.0,29.72,SSE,150,1.0,5.0,96,0.01,,,0.39,,2013-07-20 10:01:00,
2013-07-20 06:42:00,70.0,69.0,29.72,SSE,150,0.0,2.0,96,0.01,,,0.39,,2013-07-20 10:42:00,
2013-07-20 08:22:00,70.0,68.0,29.71,SW,221,2.0,4.0,93,0.00,,,0.39,,2013-07-20 12:22:00,
2013-07-20 08:32:00,70.0,68.0,29.71,SW,221,2.0,4.0,93,0.00,,,0.39,,2013-07-20 12:32:00,
2013-07-20 11:11:00,76.0,69.0,29.75,West,271,3.0,10.0,80,0.00,,,0.39,,2013-07-20 15:11:00,
2013-07-20 11:44:00,76.0,70.0,29.75,West,268,4.0,10.0,82,0.00,,,0.39,,2013-07-20 15:44:00,
2013-07-20 12:01:00,76.0,70.0,29.76,WNW,301,5.0,8.0,82,0.00,,,0.39,,2013-07-20 16:01:00,
2013-07-20 14:12:00,67.0,65.0,29.78,South,184,2.0,4.0,92,0.27,,,0.87,,2013-07-20 18:12:00,
2013-07-20 17:15:00,76.0,67.0,29.80,West,264,2.0,5.0,73,0.00,,,0.87,,2013-07-20 21:15:00,
2013-07-20 17:35:00,77.0,66.0,29.79,West,278,2.0,5.0,70,0.00,,,0.87,,2013-07-20 21:35:00,
2013-07-20 17:46:00,77.0,68.0,29.79,NW,309,1.0,4.0,73,0.00,,,0.87,,2013-07-20 21:46:00,
2013-07-20 17:55:00,78.0,69.0,29.80,SSW,206,1.0,3.0,73,0.00,,,0.87,,2013-07-20 21:55:00,
2013-07-20 18:08:00,78.0,68.0,29.80,SW,228,1.0,3.0,72,0.00,,,0.87,,2013-07-20 22:08:00,
2013-07-20 18:17:00,76.0,67.0,29.80,West,259,1.0,3.0,74,0.00,,,0.87,,2013-07-20 22:17:00,
2013-07-20 18:36:00,77.0,67.0,29.80,WNW,289,3.0,4.0,71,0.00,,,0.87,,2013-07-20 22:36:00,
2013-07-20 18:47:00,76.0,67.0,29.80,WNW,285,0.0,2.0,75,0.00,,,0.87,,2013-07-20 22:47:00,
2013-07-20 18:55:00,76.0,68.0,29.79,West,268,0.0,1.0,76,0.00,,,0.87,,2013-07-20 22:55:00,
2013-07-20 19:06:00,76.0,69.0,29.79,West,259,0.0,2.0,78,0.00,,,0.87,,2013-07-20 23:06:00,
2013-07-20 19:17:00,76.0,69.0,29.80,WSW,248,1.0,3.0,78,0.00,,,0.87,,2013-07-20 23:17:00,
2013-07-20 19:29:00,77.0,69.0,29.80,SW,235,1.0,2.0,77,0.00,,,0.87,,2013-07-20 23:29:00,
2013-07-20 19:38:00,77.0,69.0,29.80,SW,221,2.0,3.0,77,0.00,,,0.87,,2013-07-20 23:38:00,
2013-07-20 19:45:00,76.0,69.0,29.80,South,169,1.0,3.0,78,0.00,,,0.87,,2013-07-20 23:45:00,
2013-07-20 19:56:00,76.0,69.0,29.80,SW,214,2.0,4.0,79,0.00,,,0.87,,2013-07-20 23:56:00,
2013-07-20 20:08:00,75.0,69.0,29.80,SSW,193,1.0,3.0,81,0.00,,,0.87,,2013-07-21 00:08:00,
2013-07-20 20:18:00,75.0,69.0,29.80,SW,231,1.0,2.0,82,0.00,,,0.87,,2013-07-21 00:18:00,
2013-07-20 20:24:00,75.0,69.0,29.80,SSW,198,0.0,1.0,83,0.00,,,0.87,,2013-07-21 00:24:00,
2013-07-20 20:45:00,74.0,69.0,29.80,SSE,164,1.0,1.0,85,0.00,,,0.87,,2013-07-21 00:45:00,
2013-07-20 20:55:00,72.0,69.0,29.82,SSE,163,0.0,0.0,90,0.00,,,0.87,,2013-07-21 00:55:00,
2013-07-20 21:13:00,71.0,69.0,29.82,SSE,165,0.0,1.0,93,0.00,,,0.87,,2013-07-21 01:13:00,
2013-07-20 21:29:00,70.0,68.0,29.83,South,172,0.0,2.0,93,0.00,,,0.85,,2013-07-21 01:29:00,
2013-07-20 21:36:00,70.0,68.0,29.83,South,172,0.0,0.0,93,0.00,,,0.85,,2013-07-21 01:36:00,
2013-07-20 21:48:00,-999.0,-99.9,29.83,SSW,213,0.0,1.0,-999,-99.99,,,-99.99,,2013-07-21 01:48:00,
2013-07-20 21:57:00,69.0,68.0,29.84,SW,229,0.0,1.0,95,0.00,,,0.85,,2013-07-21 01:57:00,
2013-07-20 22:06:00,69.0,67.0,29.84,SW,229,0.0,0.0,94,0.00,,,0.85,,2013-07-21 02:06:00,
2013-07-20 22:18:00,68.0,66.0,29.84,SW,229,0.0,0.0,94,0.00,,,0.85,,2013-07-21 02:18:00,
2013-07-20 22:28:00,68.0,67.0,29.85,West,265,0.0,2.0,96,0.00,,,0.78,,2013-07-21 02:28:00,